sensor_id;sensor_type;location;lat;lon;timestamp;P1;durP1;ratioP1;P2;durP2;ratioP2
23236;SDS011;11787;52.018;8.570;2023-04-15T00:01:29;10.15;;;6.30;;
23236;SDS011;11787;52.018;8.570;2023-04-15T00:03:57;12.63;;;6.53;;
23236;SDS011;11787;52.018;8.570;2023-04-15T00:06:23;11.05;;;6.80;;
23236;SDS011;11787;52.018;8.570;2023-04-15T00:08:49;10.35;;;6.50;;
23236;SDS011;11787;52.018;8.570;2023-04-15T00:11:17;11.07;;;6.40;;
23236;SDS011;11787;52.018;8.570;2023-04-15T00:13:44;11.05;;;6.70;;
23236;SDS011;11787;52.018;8.570;2023-04-15T00:16:10;7.20;;;5.68;;
23236;SDS011;11787;52.018;8.570;2023-04-15T00:18:36;6.95;;;5.63;;
23236;SDS011;11787;52.018;8.570;2023-04-15T00:21:03;11.20;;;6.03;;
23236;SDS011;11787;52.018;8.570;2023-04-15T00:23:29;6.97;;;5.53;;
23236;SDS011;11787;52.018;8.570;2023-04-15T00:25:55;8.38;;;5.75;;
23236;SDS011;11787;52.018;8.570;2023-04-15T00:28:21;7.85;;;5.35;;
23236;SDS011;11787;52.018;8.570;2023-04-15T00:30:46;9.45;;;7.10;;
23236;SDS011;11787;52.018;8.570;2023-04-15T00:33:12;6.97;;;5.75;;
23236;SDS011;11787;52.018;8.570;2023-04-15T00:35:38;8.85;;;6.30;;
23236;SDS011;11787;52.018;8.570;2023-04-15T00:38:04;6.28;;;5.28;;
23236;SDS011;11787;52.018;8.570;2023-04-15T00:40:32;7.15;;;5.93;;
23236;SDS011;11787;52.018;8.570;2023-04-15T00:42:58;9.63;;;6.22;;
23236;SDS011;11787;52.018;8.570;2023-04-15T00:45:24;8.85;;;6.22;;
23236;SDS011;11787;52.018;8.570;2023-04-15T00:47:52;10.68;;;6.53;;
23236;SDS011;11787;52.018;8.570;2023-04-15T00:50:18;10.05;;;7.50;;
23236;SDS011;11787;52.018;8.570;2023-04-15T00:52:43;9.13;;;7.18;;
23236;SDS011;11787;52.018;8.570;2023-04-15T00:55:09;9.93;;;6.55;;
23236;SDS011;11787;52.018;8.570;2023-04-15T00:57:35;7.88;;;6.35;;
23236;SDS011;11787;52.018;8.570;2023-04-15T01:00:01;8.88;;;6.38;;
23236;SDS011;11787;52.018;8.570;2023-04-15T01:02:28;8.80;;;6.60;;
23236;SDS011;11787;52.018;8.570;2023-04-15T01:04:55;8.77;;;6.05;;
23236;SDS011;11787;52.018;8.570;2023-04-15T01:07:21;7.10;;;5.65;;
23236;SDS011;11787;52.018;8.570;2023-04-15T01:09:46;7.72;;;6.22;;
23236;SDS011;11787;52.018;8.570;2023-04-15T01:12:12;7.68;;;5.53;;
23236;SDS011;11787;52.018;8.570;2023-04-15T01:14:40;10.63;;;6.32;;
23236;SDS011;11787;52.018;8.570;2023-04-15T01:17:05;9.07;;;5.72;;
23236;SDS011;11787;52.018;8.570;2023-04-15T01:19:31;12.40;;;5.45;;
23236;SDS011;11787;52.018;8.570;2023-04-15T01:21:57;9.88;;;6.22;;
23236;SDS011;11787;52.018;8.570;2023-04-15T01:24:23;6.40;;;5.28;;
23236;SDS011;11787;52.018;8.570;2023-04-15T01:26:51;8.70;;;6.45;;
23236;SDS011;11787;52.018;8.570;2023-04-15T01:29:18;8.23;;;6.72;;
23236;SDS011;11787;52.018;8.570;2023-04-15T01:31:50;9.75;;;8.75;;
23236;SDS011;11787;52.018;8.570;2023-04-15T01:34:16;11.60;;;8.73;;
23236;SDS011;11787;52.018;8.570;2023-04-15T01:36:42;10.60;;;8.18;;
23236;SDS011;11787;52.018;8.570;2023-04-15T01:39:08;11.55;;;9.63;;
23236;SDS011;11787;52.018;8.570;2023-04-15T01:41:33;11.93;;;10.18;;
23236;SDS011;11787;52.018;8.570;2023-04-15T01:43:59;12.68;;;9.40;;
23236;SDS011;11787;52.018;8.570;2023-04-15T01:46:26;12.57;;;9.40;;
23236;SDS011;11787;52.018;8.570;2023-04-15T01:48:51;11.90;;;8.73;;
23236;SDS011;11787;52.018;8.570;2023-04-15T01:51:17;13.00;;;10.40;;
23236;SDS011;11787;52.018;8.570;2023-04-15T01:53:43;14.75;;;11.05;;
23236;SDS011;11787;52.018;8.570;2023-04-15T01:56:08;11.88;;;9.57;;
23236;SDS011;11787;52.018;8.570;2023-04-15T01:58:34;13.52;;;10.02;;
23236;SDS011;11787;52.018;8.570;2023-04-15T02:01:00;13.20;;;10.00;;
23236;SDS011;11787;52.018;8.570;2023-04-15T02:03:27;12.20;;;9.18;;
23236;SDS011;11787;52.018;8.570;2023-04-15T02:05:53;13.00;;;10.57;;
23236;SDS011;11787;52.018;8.570;2023-04-15T02:08:19;12.90;;;10.07;;
23236;SDS011;11787;52.018;8.570;2023-04-15T02:10:44;13.73;;;9.18;;
23236;SDS011;11787;52.018;8.570;2023-04-15T02:13:10;12.57;;;10.15;;
23236;SDS011;11787;52.018;8.570;2023-04-15T02:15:36;12.18;;;10.25;;
23236;SDS011;11787;52.018;8.570;2023-04-15T02:18:01;12.40;;;10.45;;
23236;SDS011;11787;52.018;8.570;2023-04-15T02:20:28;11.25;;;9.25;;
23236;SDS011;11787;52.018;8.570;2023-04-15T02:22:54;11.80;;;9.65;;
23236;SDS011;11787;52.018;8.570;2023-04-15T02:25:21;11.10;;;9.48;;
23236;SDS011;11787;52.018;8.570;2023-04-15T02:27:46;13.15;;;10.13;;
23236;SDS011;11787;52.018;8.570;2023-04-15T02:30:12;10.48;;;8.82;;
23236;SDS011;11787;52.018;8.570;2023-04-15T02:32:38;11.68;;;9.07;;
23236;SDS011;11787;52.018;8.570;2023-04-15T02:35:05;10.88;;;8.93;;
23236;SDS011;11787;52.018;8.570;2023-04-15T02:37:33;10.55;;;8.60;;
23236;SDS011;11787;52.018;8.570;2023-04-15T02:40:05;9.20;;;8.07;;
23236;SDS011;11787;52.018;8.570;2023-04-15T02:42:40;10.15;;;8.80;;
23236;SDS011;11787;52.018;8.570;2023-04-15T02:45:07;10.55;;;8.63;;
23236;SDS011;11787;52.018;8.570;2023-04-15T02:47:36;10.60;;;8.38;;
23236;SDS011;11787;52.018;8.570;2023-04-15T02:50:03;12.55;;;9.70;;
23236;SDS011;11787;52.018;8.570;2023-04-15T02:52:31;12.85;;;10.30;;
23236;SDS011;11787;52.018;8.570;2023-04-15T02:54:56;13.73;;;10.00;;
23236;SDS011;11787;52.018;8.570;2023-04-15T02:57:27;11.95;;;9.65;;
23236;SDS011;11787;52.018;8.570;2023-04-15T02:59:55;9.85;;;8.85;;
23236;SDS011;11787;52.018;8.570;2023-04-15T03:02:21;10.80;;;9.20;;
23236;SDS011;11787;52.018;8.570;2023-04-15T03:04:47;9.63;;;7.68;;
23236;SDS011;11787;52.018;8.570;2023-04-15T03:07:13;10.85;;;8.60;;
23236;SDS011;11787;52.018;8.570;2023-04-15T03:09:38;9.80;;;8.70;;
23236;SDS011;11787;52.018;8.570;2023-04-15T03:12:05;11.63;;;8.65;;
23236;SDS011;11787;52.018;8.570;2023-04-15T03:14:31;10.55;;;8.95;;
23236;SDS011;11787;52.018;8.570;2023-04-15T03:16:56;11.75;;;8.77;;
23236;SDS011;11787;52.018;8.570;2023-04-15T03:19:23;11.23;;;9.32;;
23236;SDS011;11787;52.018;8.570;2023-04-15T03:21:49;14.35;;;9.98;;
23236;SDS011;11787;52.018;8.570;2023-04-15T03:24:16;9.55;;;8.60;;
23236;SDS011;11787;52.018;8.570;2023-04-15T03:26:41;11.27;;;8.75;;
23236;SDS011;11787;52.018;8.570;2023-04-15T03:29:07;10.05;;;8.77;;
23236;SDS011;11787;52.018;8.570;2023-04-15T03:31:32;9.73;;;8.30;;
23236;SDS011;11787;52.018;8.570;2023-04-15T03:33:58;11.90;;;8.63;;
23236;SDS011;11787;52.018;8.570;2023-04-15T03:36:24;13.48;;;9.63;;
23236;SDS011;11787;52.018;8.570;2023-04-15T03:38:50;10.27;;;8.77;;
23236;SDS011;11787;52.018;8.570;2023-04-15T03:41:15;11.55;;;9.63;;
23236;SDS011;11787;52.018;8.570;2023-04-15T03:43:41;12.15;;;9.20;;
23236;SDS011;11787;52.018;8.570;2023-04-15T03:46:06;12.23;;;9.18;;
23236;SDS011;11787;52.018;8.570;2023-04-15T03:48:32;9.88;;;8.88;;
23236;SDS011;11787;52.018;8.570;2023-04-15T03:50:58;10.30;;;9.15;;
23236;SDS011;11787;52.018;8.570;2023-04-15T03:53:23;11.50;;;10.18;;
23236;SDS011;11787;52.018;8.570;2023-04-15T03:55:49;10.40;;;8.57;;
23236;SDS011;11787;52.018;8.570;2023-04-15T03:58:15;10.25;;;8.93;;
23236;SDS011;11787;52.018;8.570;2023-04-15T04:00:40;12.07;;;10.65;;
23236;SDS011;11787;52.018;8.570;2023-04-15T04:03:06;12.70;;;11.02;;
23236;SDS011;11787;52.018;8.570;2023-04-15T04:05:32;11.77;;;9.07;;
23236;SDS011;11787;52.018;8.570;2023-04-15T04:07:57;11.80;;;9.60;;
23236;SDS011;11787;52.018;8.570;2023-04-15T04:10:23;10.95;;;9.52;;
23236;SDS011;11787;52.018;8.570;2023-04-15T04:12:48;11.45;;;9.45;;
23236;SDS011;11787;52.018;8.570;2023-04-15T04:15:14;11.38;;;10.07;;
23236;SDS011;11787;52.018;8.570;2023-04-15T04:17:40;12.75;;;9.75;;
23236;SDS011;11787;52.018;8.570;2023-04-15T04:20:06;12.35;;;9.52;;
23236;SDS011;11787;52.018;8.570;2023-04-15T04:22:36;12.48;;;11.07;;
23236;SDS011;11787;52.018;8.570;2023-04-15T04:25:05;11.55;;;9.68;;
23236;SDS011;11787;52.018;8.570;2023-04-15T04:27:32;10.60;;;9.55;;
23236;SDS011;11787;52.018;8.570;2023-04-15T04:29:58;10.30;;;9.30;;
23236;SDS011;11787;52.018;8.570;2023-04-15T04:32:23;10.55;;;9.45;;
23236;SDS011;11787;52.018;8.570;2023-04-15T04:34:49;13.15;;;10.65;;
23236;SDS011;11787;52.018;8.570;2023-04-15T04:37:15;11.35;;;9.25;;
23236;SDS011;11787;52.018;8.570;2023-04-15T04:39:40;12.95;;;10.38;;
23236;SDS011;11787;52.018;8.570;2023-04-15T04:42:06;11.40;;;10.02;;
23236;SDS011;11787;52.018;8.570;2023-04-15T04:44:32;14.70;;;11.00;;
23236;SDS011;11787;52.018;8.570;2023-04-15T04:46:57;12.35;;;10.18;;
23236;SDS011;11787;52.018;8.570;2023-04-15T04:49:23;14.15;;;10.68;;
23236;SDS011;11787;52.018;8.570;2023-04-15T04:51:48;14.50;;;11.55;;
23236;SDS011;11787;52.018;8.570;2023-04-15T04:54:14;15.05;;;12.20;;
23236;SDS011;11787;52.018;8.570;2023-04-15T04:56:40;14.50;;;12.43;;
23236;SDS011;11787;52.018;8.570;2023-04-15T04:59:05;15.32;;;12.10;;
23236;SDS011;11787;52.018;8.570;2023-04-15T05:01:31;18.10;;;14.25;;
23236;SDS011;11787;52.018;8.570;2023-04-15T05:03:57;16.00;;;12.38;;
23236;SDS011;11787;52.018;8.570;2023-04-15T05:06:23;17.35;;;13.15;;
23236;SDS011;11787;52.018;8.570;2023-04-15T05:08:50;15.88;;;12.10;;
23236;SDS011;11787;52.018;8.570;2023-04-15T05:11:15;15.68;;;12.60;;
23236;SDS011;11787;52.018;8.570;2023-04-15T05:13:41;16.45;;;13.20;;
23236;SDS011;11787;52.018;8.570;2023-04-15T05:16:06;17.23;;;13.73;;
23236;SDS011;11787;52.018;8.570;2023-04-15T05:18:33;13.90;;;11.55;;
23236;SDS011;11787;52.018;8.570;2023-04-15T05:20:59;17.35;;;12.88;;
23236;SDS011;11787;52.018;8.570;2023-04-15T05:23:24;15.63;;;12.43;;
23236;SDS011;11787;52.018;8.570;2023-04-15T05:25:50;15.88;;;12.35;;
23236;SDS011;11787;52.018;8.570;2023-04-15T05:28:16;13.63;;;11.82;;
23236;SDS011;11787;52.018;8.570;2023-04-15T05:30:41;17.63;;;13.93;;
23236;SDS011;11787;52.018;8.570;2023-04-15T05:33:07;17.33;;;13.43;;
23236;SDS011;11787;52.018;8.570;2023-04-15T05:35:33;16.50;;;13.55;;
23236;SDS011;11787;52.018;8.570;2023-04-15T05:37:58;15.68;;;13.38;;
23236;SDS011;11787;52.018;8.570;2023-04-15T05:40:24;18.58;;;13.57;;
23236;SDS011;11787;52.018;8.570;2023-04-15T05:42:50;15.48;;;13.48;;
23236;SDS011;11787;52.018;8.570;2023-04-15T05:45:16;18.25;;;13.88;;
23236;SDS011;11787;52.018;8.570;2023-04-15T05:47:41;17.05;;;13.30;;
23236;SDS011;11787;52.018;8.570;2023-04-15T05:50:07;16.33;;;13.32;;
23236;SDS011;11787;52.018;8.570;2023-04-15T05:52:33;15.52;;;12.85;;
23236;SDS011;11787;52.018;8.570;2023-04-15T05:54:58;15.18;;;12.13;;
23236;SDS011;11787;52.018;8.570;2023-04-15T05:57:24;15.43;;;12.90;;
23236;SDS011;11787;52.018;8.570;2023-04-15T05:59:50;14.95;;;12.85;;
23236;SDS011;11787;52.018;8.570;2023-04-15T06:02:16;16.83;;;13.60;;
23236;SDS011;11787;52.018;8.570;2023-04-15T06:04:42;17.23;;;13.60;;
23236;SDS011;11787;52.018;8.570;2023-04-15T06:07:08;16.20;;;13.10;;
23236;SDS011;11787;52.018;8.570;2023-04-15T06:09:33;15.57;;;12.90;;
23236;SDS011;11787;52.018;8.570;2023-04-15T06:12:00;15.10;;;12.90;;
23236;SDS011;11787;52.018;8.570;2023-04-15T06:14:26;16.25;;;13.30;;
23236;SDS011;11787;52.018;8.570;2023-04-15T06:16:51;18.05;;;13.32;;
23236;SDS011;11787;52.018;8.570;2023-04-15T06:19:17;16.70;;;13.20;;
23236;SDS011;11787;52.018;8.570;2023-04-15T06:21:43;16.80;;;12.70;;
23236;SDS011;11787;52.018;8.570;2023-04-15T06:24:09;18.20;;;13.93;;
23236;SDS011;11787;52.018;8.570;2023-04-15T06:26:35;17.60;;;13.98;;
23236;SDS011;11787;52.018;8.570;2023-04-15T06:29:01;17.88;;;13.70;;
23236;SDS011;11787;52.018;8.570;2023-04-15T06:31:26;16.05;;;13.27;;
23236;SDS011;11787;52.018;8.570;2023-04-15T06:33:52;18.27;;;14.20;;
23236;SDS011;11787;52.018;8.570;2023-04-15T06:36:18;16.63;;;13.60;;
23236;SDS011;11787;52.018;8.570;2023-04-15T06:38:43;17.95;;;14.27;;
23236;SDS011;11787;52.018;8.570;2023-04-15T06:41:09;18.08;;;13.82;;
23236;SDS011;11787;52.018;8.570;2023-04-15T06:43:35;17.45;;;13.50;;
23236;SDS011;11787;52.018;8.570;2023-04-15T06:46:00;20.85;;;15.52;;
23236;SDS011;11787;52.018;8.570;2023-04-15T06:48:26;20.02;;;16.02;;
23236;SDS011;11787;52.018;8.570;2023-04-15T06:50:52;22.63;;;18.25;;
23236;SDS011;11787;52.018;8.570;2023-04-15T06:53:17;22.55;;;18.05;;
23236;SDS011;11787;52.018;8.570;2023-04-15T06:55:43;32.58;;;21.33;;
23236;SDS011;11787;52.018;8.570;2023-04-15T06:58:09;30.75;;;21.90;;
23236;SDS011;11787;52.018;8.570;2023-04-15T07:00:34;28.60;;;20.85;;
23236;SDS011;11787;52.018;8.570;2023-04-15T07:03:02;30.02;;;23.33;;
23236;SDS011;11787;52.018;8.570;2023-04-15T07:05:29;28.90;;;22.40;;
23236;SDS011;11787;52.018;8.570;2023-04-15T07:07:55;30.35;;;23.65;;
23236;SDS011;11787;52.018;8.570;2023-04-15T07:10:21;35.10;;;24.48;;
23236;SDS011;11787;52.018;8.570;2023-04-15T07:12:47;28.88;;;23.98;;
23236;SDS011;11787;52.018;8.570;2023-04-15T07:15:13;31.60;;;24.20;;
23236;SDS011;11787;52.018;8.570;2023-04-15T07:17:39;36.90;;;25.23;;
23236;SDS011;11787;52.018;8.570;2023-04-15T07:20:05;35.80;;;25.92;;
23236;SDS011;11787;52.018;8.570;2023-04-15T07:22:32;37.90;;;26.55;;
23236;SDS011;11787;52.018;8.570;2023-04-15T07:24:58;37.95;;;25.90;;
23236;SDS011;11787;52.018;8.570;2023-04-15T07:27:23;38.55;;;26.88;;
23236;SDS011;11787;52.018;8.570;2023-04-15T07:29:49;33.00;;;24.48;;
23236;SDS011;11787;52.018;8.570;2023-04-15T07:32:16;36.80;;;27.20;;
23236;SDS011;11787;52.018;8.570;2023-04-15T07:34:41;39.10;;;26.27;;
23236;SDS011;11787;52.018;8.570;2023-04-15T07:37:08;36.63;;;24.38;;
23236;SDS011;11787;52.018;8.570;2023-04-15T07:39:35;37.78;;;26.17;;
23236;SDS011;11787;52.018;8.570;2023-04-15T07:42:01;36.67;;;24.90;;
23236;SDS011;11787;52.018;8.570;2023-04-15T07:44:28;32.25;;;22.30;;
23236;SDS011;11787;52.018;8.570;2023-04-15T07:46:54;26.70;;;20.20;;
23236;SDS011;11787;52.018;8.570;2023-04-15T07:49:20;29.13;;;19.00;;
23236;SDS011;11787;52.018;8.570;2023-04-15T07:51:46;23.33;;;17.45;;
23236;SDS011;11787;52.018;8.570;2023-04-15T07:54:12;21.48;;;15.07;;
23236;SDS011;11787;52.018;8.570;2023-04-15T07:56:38;23.88;;;16.65;;
23236;SDS011;11787;52.018;8.570;2023-04-15T07:59:04;22.83;;;16.25;;
23236;SDS011;11787;52.018;8.570;2023-04-15T08:01:30;20.92;;;14.68;;
23236;SDS011;11787;52.018;8.570;2023-04-15T08:03:57;19.60;;;14.68;;
23236;SDS011;11787;52.018;8.570;2023-04-15T08:06:23;18.80;;;14.07;;
23236;SDS011;11787;52.018;8.570;2023-04-15T08:08:48;18.95;;;14.55;;
23236;SDS011;11787;52.018;8.570;2023-04-15T08:11:14;17.60;;;14.25;;
23236;SDS011;11787;52.018;8.570;2023-04-15T08:13:40;18.73;;;14.15;;
23236;SDS011;11787;52.018;8.570;2023-04-15T08:16:24;19.25;;;14.38;;
23236;SDS011;11787;52.018;8.570;2023-04-15T08:18:52;16.08;;;12.75;;
23236;SDS011;11787;52.018;8.570;2023-04-15T08:21:19;16.67;;;13.07;;
23236;SDS011;11787;52.018;8.570;2023-04-15T08:23:45;17.48;;;13.38;;
23236;SDS011;11787;52.018;8.570;2023-04-15T08:26:13;15.45;;;12.45;;
23236;SDS011;11787;52.018;8.570;2023-04-15T08:28:39;19.20;;;13.68;;
23236;SDS011;11787;52.018;8.570;2023-04-15T08:31:06;17.33;;;12.60;;
23236;SDS011;11787;52.018;8.570;2023-04-15T08:33:32;13.85;;;11.38;;
23236;SDS011;11787;52.018;8.570;2023-04-15T08:35:58;14.65;;;11.85;;
23236;SDS011;11787;52.018;8.570;2023-04-15T08:38:23;14.35;;;11.02;;
23236;SDS011;11787;52.018;8.570;2023-04-15T08:40:49;15.57;;;11.93;;
23236;SDS011;11787;52.018;8.570;2023-04-15T08:43:20;15.30;;;12.23;;
23236;SDS011;11787;52.018;8.570;2023-04-15T08:45:50;13.80;;;11.90;;
23236;SDS011;11787;52.018;8.570;2023-04-15T08:48:16;14.73;;;12.40;;
23236;SDS011;11787;52.018;8.570;2023-04-15T08:50:42;16.20;;;13.30;;
23236;SDS011;11787;52.018;8.570;2023-04-15T08:53:09;13.70;;;11.18;;
23236;SDS011;11787;52.018;8.570;2023-04-15T08:55:36;15.15;;;12.52;;
23236;SDS011;11787;52.018;8.570;2023-04-15T08:58:08;15.75;;;12.43;;
23236;SDS011;11787;52.018;8.570;2023-04-15T09:00:35;12.48;;;9.85;;
23236;SDS011;11787;52.018;8.570;2023-04-15T09:03:02;17.65;;;13.00;;
23236;SDS011;11787;52.018;8.570;2023-04-15T09:05:30;14.38;;;11.40;;
23236;SDS011;11787;52.018;8.570;2023-04-15T09:07:57;15.10;;;11.07;;
23236;SDS011;11787;52.018;8.570;2023-04-15T09:10:23;13.30;;;10.25;;
23236;SDS011;11787;52.018;8.570;2023-04-15T09:12:48;11.23;;;9.40;;
23236;SDS011;11787;52.018;8.570;2023-04-15T09:15:14;12.07;;;10.25;;
23236;SDS011;11787;52.018;8.570;2023-04-15T09:17:44;14.07;;;11.35;;
23236;SDS011;11787;52.018;8.570;2023-04-15T09:20:11;14.50;;;10.98;;
23236;SDS011;11787;52.018;8.570;2023-04-15T09:22:38;12.38;;;10.15;;
23236;SDS011;11787;52.018;8.570;2023-04-15T09:27:57;13.77;;;10.73;;
23236;SDS011;11787;52.018;8.570;2023-04-15T09:30:24;13.25;;;10.90;;
23236;SDS011;11787;52.018;8.570;2023-04-15T09:32:51;10.50;;;9.07;;
23236;SDS011;11787;52.018;8.570;2023-04-15T09:35:25;13.65;;;10.30;;
23236;SDS011;11787;52.018;8.570;2023-04-15T09:38:01;12.30;;;9.63;;
23236;SDS011;11787;52.018;8.570;2023-04-15T09:42:58;9.40;;;8.32;;
23236;SDS011;11787;52.018;8.570;2023-04-15T09:45:24;11.82;;;9.88;;
23236;SDS011;11787;52.018;8.570;2023-04-15T10:00:02;12.38;;;9.27;;
23236;SDS011;11787;52.018;8.570;2023-04-15T10:02:29;13.57;;;9.52;;
23236;SDS011;11787;52.018;8.570;2023-04-15T11:09:39;6.15;;;4.75;;
23236;SDS011;11787;52.018;8.570;2023-04-15T11:14:41;6.68;;;5.88;;
23236;SDS011;11787;52.018;8.570;2023-04-15T11:17:07;5.82;;;5.22;;
23236;SDS011;11787;52.018;8.570;2023-04-15T11:19:36;6.40;;;5.80;;
23236;SDS011;11787;52.018;8.570;2023-04-15T11:22:06;6.25;;;5.55;;
23236;SDS011;11787;52.018;8.570;2023-04-15T11:24:33;6.47;;;5.63;;
23236;SDS011;11787;52.018;8.570;2023-04-15T11:27:00;6.45;;;5.53;;
23236;SDS011;11787;52.018;8.570;2023-04-15T11:29:30;6.88;;;5.47;;
23236;SDS011;11787;52.018;8.570;2023-04-15T11:32:05;6.18;;;5.57;;
23236;SDS011;11787;52.018;8.570;2023-04-15T11:37:02;6.47;;;5.88;;
23236;SDS011;11787;52.018;8.570;2023-04-15T11:39:29;6.93;;;6.22;;
23236;SDS011;11787;52.018;8.570;2023-04-15T11:41:54;8.20;;;6.65;;
23236;SDS011;11787;52.018;8.570;2023-04-15T11:44:20;7.65;;;6.70;;
23236;SDS011;11787;52.018;8.570;2023-04-15T11:46:46;5.95;;;5.35;;
23236;SDS011;11787;52.018;8.570;2023-04-15T11:49:11;7.70;;;5.97;;
23236;SDS011;11787;52.018;8.570;2023-04-15T11:51:50;6.65;;;5.72;;
23236;SDS011;11787;52.018;8.570;2023-04-15T11:54:19;5.55;;;5.05;;
23236;SDS011;11787;52.018;8.570;2023-04-15T11:56:49;5.65;;;5.15;;
23236;SDS011;11787;52.018;8.570;2023-04-15T11:59:15;5.70;;;5.18;;
23236;SDS011;11787;52.018;8.570;2023-04-15T12:01:41;6.20;;;5.60;;
23236;SDS011;11787;52.018;8.570;2023-04-15T12:04:15;5.15;;;4.65;;
23236;SDS011;11787;52.018;8.570;2023-04-15T12:06:43;5.55;;;4.60;;
23236;SDS011;11787;52.018;8.570;2023-04-15T12:09:10;5.03;;;4.63;;
23236;SDS011;11787;52.018;8.570;2023-04-15T12:17:13;5.93;;;5.18;;
23236;SDS011;11787;52.018;8.570;2023-04-15T12:19:38;6.03;;;5.10;;
23236;SDS011;11787;52.018;8.570;2023-04-15T12:22:10;5.63;;;4.57;;
23236;SDS011;11787;52.018;8.570;2023-04-15T12:24:37;5.22;;;4.53;;
23236;SDS011;11787;52.018;8.570;2023-04-15T12:27:04;5.28;;;4.78;;
23236;SDS011;11787;52.018;8.570;2023-04-15T12:29:31;5.03;;;4.55;;
23236;SDS011;11787;52.018;8.570;2023-04-15T12:32:05;4.85;;;4.45;;
23236;SDS011;11787;52.018;8.570;2023-04-15T12:34:35;5.45;;;4.95;;
23236;SDS011;11787;52.018;8.570;2023-04-15T12:37:05;5.93;;;5.25;;
23236;SDS011;11787;52.018;8.570;2023-04-15T12:39:35;5.75;;;5.18;;
23236;SDS011;11787;52.018;8.570;2023-04-15T12:42:03;5.38;;;4.88;;
23236;SDS011;11787;52.018;8.570;2023-04-15T12:44:29;5.10;;;4.60;;
23236;SDS011;11787;52.018;8.570;2023-04-15T12:46:55;5.80;;;4.72;;
23236;SDS011;11787;52.018;8.570;2023-04-15T12:51:51;4.80;;;4.30;;
23236;SDS011;11787;52.018;8.570;2023-04-15T12:56:44;4.40;;;4.00;;
23236;SDS011;11787;52.018;8.570;2023-04-15T12:59:12;5.00;;;4.50;;
23236;SDS011;11787;52.018;8.570;2023-04-15T13:01:38;5.30;;;3.83;;
23236;SDS011;11787;52.018;8.570;2023-04-15T13:06:30;4.00;;;3.60;;
23236;SDS011;11787;52.018;8.570;2023-04-15T13:08:57;4.00;;;3.33;;
23236;SDS011;11787;52.018;8.570;2023-04-15T13:13:55;3.65;;;3.35;;
23236;SDS011;11787;52.018;8.570;2023-04-15T13:16:21;3.50;;;3.20;;
23236;SDS011;11787;52.018;8.570;2023-04-15T13:18:47;4.70;;;3.70;;
23236;SDS011;11787;52.018;8.570;2023-04-15T13:21:13;5.40;;;4.20;;
23236;SDS011;11787;52.018;8.570;2023-04-15T13:23:42;12.95;;;10.70;;
23236;SDS011;11787;52.018;8.570;2023-04-15T13:26:07;4.78;;;4.18;;
23236;SDS011;11787;52.018;8.570;2023-04-15T13:28:33;4.50;;;4.10;;
23236;SDS011;11787;52.018;8.570;2023-04-15T13:30:59;5.95;;;4.50;;
23236;SDS011;11787;52.018;8.570;2023-04-15T13:33:25;4.97;;;4.47;;
23236;SDS011;11787;52.018;8.570;2023-04-15T13:35:51;4.90;;;4.00;;
23236;SDS011;11787;52.018;8.570;2023-04-15T13:38:16;5.00;;;4.47;;
23236;SDS011;11787;52.018;8.570;2023-04-15T13:40:42;5.40;;;4.40;;
23236;SDS011;11787;52.018;8.570;2023-04-15T13:43:08;6.47;;;5.43;;
23236;SDS011;11787;52.018;8.570;2023-04-15T13:45:34;5.83;;;5.23;;
23236;SDS011;11787;52.018;8.570;2023-04-15T13:48:00;7.30;;;5.78;;
23236;SDS011;11787;52.018;8.570;2023-04-15T13:50:26;6.60;;;5.70;;
23236;SDS011;11787;52.018;8.570;2023-04-15T14:11:24;8.60;;;7.68;;
23236;SDS011;11787;52.018;8.570;2023-04-15T14:13:50;10.52;;;8.30;;
23236;SDS011;11787;52.018;8.570;2023-04-15T14:16:15;9.60;;;8.35;;
23236;SDS011;11787;52.018;8.570;2023-04-15T14:18:41;10.93;;;9.00;;
23236;SDS011;11787;52.018;8.570;2023-04-15T14:21:08;10.63;;;8.73;;
23236;SDS011;11787;52.018;8.570;2023-04-15T14:23:33;13.60;;;9.75;;
23236;SDS011;11787;52.018;8.570;2023-04-15T14:25:59;11.23;;;8.80;;
23236;SDS011;11787;52.018;8.570;2023-04-15T14:28:25;10.90;;;9.80;;
23236;SDS011;11787;52.018;8.570;2023-04-15T14:30:50;12.30;;;9.88;;
23236;SDS011;11787;52.018;8.570;2023-04-15T14:33:16;11.48;;;9.70;;
23236;SDS011;11787;52.018;8.570;2023-04-15T14:35:41;11.57;;;9.90;;
23236;SDS011;11787;52.018;8.570;2023-04-15T14:38:07;12.65;;;11.02;;
23236;SDS011;11787;52.018;8.570;2023-04-15T14:40:34;26.08;;;19.80;;
23236;SDS011;11787;52.018;8.570;2023-04-15T14:43:01;12.90;;;10.50;;
23236;SDS011;11787;52.018;8.570;2023-04-15T14:45:26;11.57;;;9.88;;
23236;SDS011;11787;52.018;8.570;2023-04-15T14:47:53;13.93;;;11.88;;
23236;SDS011;11787;52.018;8.570;2023-04-15T14:50:19;12.38;;;10.52;;
23236;SDS011;11787;52.018;8.570;2023-04-15T14:52:45;11.98;;;10.55;;
23236;SDS011;11787;52.018;8.570;2023-04-15T14:55:11;12.00;;;10.35;;
23236;SDS011;11787;52.018;8.570;2023-04-15T14:57:37;10.40;;;9.27;;
23236;SDS011;11787;52.018;8.570;2023-04-15T15:00:04;12.57;;;10.25;;
23236;SDS011;11787;52.018;8.570;2023-04-15T15:02:31;14.93;;;10.75;;
23236;SDS011;11787;52.018;8.570;2023-04-15T15:04:58;12.02;;;10.45;;
23236;SDS011;11787;52.018;8.570;2023-04-15T15:07:25;12.25;;;9.90;;
23236;SDS011;11787;52.018;8.570;2023-04-15T15:09:51;12.57;;;10.52;;
23236;SDS011;11787;52.018;8.570;2023-04-15T15:12:16;11.85;;;9.93;;
23236;SDS011;11787;52.018;8.570;2023-04-15T15:14:42;12.05;;;10.10;;
23236;SDS011;11787;52.018;8.570;2023-04-15T15:17:08;13.27;;;9.57;;
23236;SDS011;11787;52.018;8.570;2023-04-15T15:19:34;16.35;;;11.30;;
23236;SDS011;11787;52.018;8.570;2023-04-15T15:22:00;12.07;;;10.23;;
23236;SDS011;11787;52.018;8.570;2023-04-15T15:24:25;11.00;;;9.55;;
23236;SDS011;11787;52.018;8.570;2023-04-15T15:26:51;10.60;;;9.00;;
23236;SDS011;11787;52.018;8.570;2023-04-15T15:29:16;11.35;;;9.40;;
23236;SDS011;11787;52.018;8.570;2023-04-15T15:31:42;11.93;;;8.93;;
23236;SDS011;11787;52.018;8.570;2023-04-15T15:34:07;11.45;;;9.73;;
23236;SDS011;11787;52.018;8.570;2023-04-15T15:36:33;10.55;;;9.25;;
23236;SDS011;11787;52.018;8.570;2023-04-15T15:38:59;12.02;;;9.63;;
23236;SDS011;11787;52.018;8.570;2023-04-15T15:41:25;10.90;;;9.65;;
23236;SDS011;11787;52.018;8.570;2023-04-15T15:43:51;11.40;;;9.07;;
23236;SDS011;11787;52.018;8.570;2023-04-15T15:46:17;11.02;;;8.30;;
23236;SDS011;11787;52.018;8.570;2023-04-15T15:48:43;10.23;;;8.07;;
23236;SDS011;11787;52.018;8.570;2023-04-15T15:51:08;10.80;;;7.88;;
23236;SDS011;11787;52.018;8.570;2023-04-15T15:53:34;12.30;;;9.25;;
23236;SDS011;11787;52.018;8.570;2023-04-15T15:56:00;10.25;;;8.68;;
23236;SDS011;11787;52.018;8.570;2023-04-15T15:58:27;10.80;;;9.10;;
23236;SDS011;11787;52.018;8.570;2023-04-15T16:00:54;9.50;;;8.30;;
23236;SDS011;11787;52.018;8.570;2023-04-15T16:03:20;11.38;;;8.75;;
23236;SDS011;11787;52.018;8.570;2023-04-15T16:05:46;14.07;;;10.85;;
23236;SDS011;11787;52.018;8.570;2023-04-15T16:08:12;11.30;;;9.45;;
23236;SDS011;11787;52.018;8.570;2023-04-15T16:10:37;14.35;;;10.70;;
23236;SDS011;11787;52.018;8.570;2023-04-15T16:13:03;9.35;;;7.70;;
23236;SDS011;11787;52.018;8.570;2023-04-15T16:15:28;11.50;;;9.40;;
23236;SDS011;11787;52.018;8.570;2023-04-15T16:17:54;12.18;;;9.52;;
23236;SDS011;11787;52.018;8.570;2023-04-15T16:20:20;11.77;;;9.02;;
23236;SDS011;11787;52.018;8.570;2023-04-15T16:22:45;9.65;;;8.13;;
23236;SDS011;11787;52.018;8.570;2023-04-15T16:25:11;10.50;;;8.43;;
23236;SDS011;11787;52.018;8.570;2023-04-15T16:27:36;12.43;;;8.93;;
23236;SDS011;11787;52.018;8.570;2023-04-15T16:30:02;12.25;;;8.75;;